createdAt,value
2018-12-04T00:01:40.682Z,0.70
2018-12-04T00:03:51.541Z,0.70
2018-12-04T00:06:02.409Z,0.90
2018-12-04T00:08:13.249Z,0.80
2018-12-04T00:10:24.076Z,0.80
2018-12-04T00:12:34.940Z,0.73
2018-12-04T00:14:45.801Z,0.70
2018-12-04T00:16:56.647Z,0.93
2018-12-04T00:19:07.501Z,0.80
2018-12-04T00:21:18.354Z,0.90
2018-12-04T00:23:29.214Z,0.97
2018-12-04T00:25:40.050Z,0.70
2018-12-04T00:27:50.909Z,0.90
2018-12-04T00:30:02.620Z,1.07
2018-12-04T00:32:13.558Z,1.03
2018-12-04T00:34:24.392Z,0.80
2018-12-04T00:36:35.223Z,0.60
2018-12-04T00:38:46.228Z,0.70
2018-12-04T00:40:57.081Z,1.07
2018-12-04T00:43:07.900Z,0.80
2018-12-04T00:45:18.743Z,1.10
2018-12-04T00:47:29.617Z,0.90
2018-12-04T00:49:40.465Z,0.77
2018-12-04T00:51:51.284Z,0.90
2018-12-04T00:54:02.349Z,0.63
2018-12-04T00:56:13.229Z,0.90
2018-12-04T00:58:24.073Z,0.73
2018-12-04T01:00:34.933Z,0.80
2018-12-04T01:02:45.736Z,0.67
2018-12-04T01:04:56.577Z,0.97
2018-12-04T01:07:07.396Z,1.00
2018-12-04T01:09:18.360Z,0.90
2018-12-04T01:11:29.204Z,0.60
2018-12-04T01:13:40.027Z,0.80
2018-12-04T01:15:50.925Z,0.90
2018-12-04T01:18:01.752Z,0.70
2018-12-04T01:20:12.593Z,0.80
2018-12-04T01:22:23.473Z,0.87
2018-12-04T01:24:35.094Z,0.80
2018-12-04T01:26:45.940Z,0.77
2018-12-04T01:28:56.811Z,0.80
2018-12-04T01:31:07.636Z,0.67
2018-12-04T01:33:18.537Z,0.87
2018-12-04T01:35:29.360Z,0.67
2018-12-04T01:37:40.305Z,0.67
2018-12-04T01:39:51.138Z,0.50
2018-12-04T01:42:02.096Z,0.67
2018-12-04T01:44:13.009Z,0.70
2018-12-04T01:46:23.849Z,0.60
2018-12-04T01:48:34.684Z,0.60
2018-12-04T01:50:45.605Z,0.90
2018-12-04T01:52:56.439Z,0.87
2018-12-04T01:55:07.257Z,0.93
2018-12-04T01:57:18.074Z,0.70
2018-12-04T01:59:28.921Z,0.60
2018-12-04T02:01:39.744Z,0.60
2018-12-04T02:03:50.618Z,0.40
2018-12-04T02:06:01.444Z,0.50
2018-12-04T02:08:12.309Z,0.40
2018-12-04T02:10:23.281Z,0.70
2018-12-04T02:12:34.099Z,0.70
2018-12-04T02:14:44.942Z,0.60
2018-12-04T02:16:55.797Z,0.50
2018-12-04T02:19:06.786Z,0.47
2018-12-04T02:21:17.633Z,0.53
2018-12-04T02:23:28.481Z,0.50
2018-12-04T02:25:39.323Z,0.50
2018-12-04T02:27:50.166Z,0.50
2018-12-04T02:30:01.060Z,0.50
2018-12-04T02:32:11.998Z,0.57
2018-12-04T02:34:22.866Z,0.60
2018-12-04T02:36:33.706Z,0.50
2018-12-04T02:38:44.528Z,0.80
2018-12-04T02:40:55.402Z,0.30
2018-12-04T02:43:06.240Z,0.60
2018-12-04T02:45:17.097Z,0.50
2018-12-04T02:47:28.007Z,0.80
2018-12-04T02:49:38.816Z,0.80
2018-12-04T02:51:49.791Z,0.80
2018-12-04T02:54:00.733Z,0.40
2018-12-04T02:56:11.590Z,0.67
2018-12-04T02:58:22.545Z,0.50
2018-12-04T03:00:33.379Z,0.50
2018-12-04T03:02:44.263Z,0.63
2018-12-04T03:04:55.080Z,0.57
2018-12-04T03:07:05.976Z,0.70
2018-12-04T03:09:16.949Z,0.50
2018-12-04T03:11:27.778Z,1.20
2018-12-04T03:13:38.641Z,0.70
2018-12-04T03:15:49.475Z,0.80
2018-12-04T03:18:00.297Z,0.50
2018-12-04T03:20:11.255Z,0.70
2018-12-04T03:22:22.071Z,0.90
2018-12-04T03:24:32.900Z,1.00
2018-12-04T03:26:43.824Z,0.70
2018-12-04T03:28:54.805Z,0.87
2018-12-04T03:31:05.641Z,0.67
2018-12-04T03:33:34.334Z,0.73
2018-12-04T03:35:45.164Z,0.70
2018-12-04T03:37:55.993Z,0.90
2018-12-04T03:40:07.472Z,0.67
2018-12-04T03:42:18.473Z,0.80
2018-12-04T03:44:29.341Z,0.90
2018-12-04T03:46:40.185Z,0.90
2018-12-04T03:48:51.246Z,0.87
2018-12-04T03:51:02.117Z,0.90
2018-12-04T03:53:12.936Z,0.73
2018-12-04T03:55:23.785Z,0.80
2018-12-04T03:57:34.625Z,0.90
2018-12-04T03:59:45.564Z,0.90
2018-12-04T04:01:56.494Z,0.80
2018-12-04T04:04:07.329Z,1.00
2018-12-04T04:06:18.165Z,0.90
2018-12-04T04:08:28.995Z,1.33
2018-12-04T04:10:39.857Z,1.10
2018-12-04T04:12:50.800Z,1.10
2018-12-04T04:15:01.665Z,1.00
2018-12-04T04:17:12.520Z,0.80
2018-12-04T04:19:23.351Z,1.20
2018-12-04T04:21:34.228Z,0.90
2018-12-04T04:23:45.048Z,0.90
2018-12-04T04:25:55.906Z,1.40
2018-12-04T04:28:06.752Z,1.10
2018-12-04T04:30:17.568Z,1.30
2018-12-04T04:32:28.416Z,1.10
2018-12-04T04:34:39.255Z,1.13
2018-12-04T04:36:50.150Z,0.90
2018-12-04T04:39:01.935Z,0.90
2018-12-04T04:41:12.947Z,1.00
2018-12-04T04:43:23.790Z,0.90
2018-12-04T04:45:34.757Z,0.80
2018-12-04T04:47:45.612Z,1.57
2018-12-04T04:49:56.463Z,1.40
2018-12-04T04:52:07.297Z,1.50
2018-12-04T04:54:18.117Z,1.50
2018-12-04T04:56:28.969Z,0.90
2018-12-04T04:58:39.829Z,1.30
2018-12-04T05:00:50.650Z,1.30
2018-12-04T05:03:01.497Z,1.23
2018-12-04T05:05:12.440Z,0.97
2018-12-04T05:07:23.286Z,1.30
2018-12-04T05:09:34.135Z,1.10
2018-12-04T05:11:45.066Z,1.10
2018-12-04T05:13:55.942Z,0.87
2018-12-04T05:16:06.812Z,1.20
2018-12-04T05:18:17.747Z,0.80
2018-12-04T05:20:28.590Z,1.07
2018-12-04T05:22:39.449Z,1.30
2018-12-04T05:24:50.289Z,1.13
2018-12-04T05:27:01.132Z,1.40
2018-12-04T05:29:11.987Z,1.70
2018-12-04T05:31:22.996Z,1.17
2018-12-04T05:33:33.829Z,1.20
2018-12-04T05:35:44.666Z,1.10
2018-12-04T05:37:55.517Z,1.37
2018-12-04T05:40:06.388Z,1.40
2018-12-04T05:42:17.222Z,1.60
2018-12-04T05:44:28.099Z,1.27
2018-12-04T05:46:39.069Z,1.10
2018-12-04T05:48:49.929Z,1.17
2018-12-04T05:51:00.776Z,1.10
2018-12-04T05:53:20.737Z,0.80
2018-12-04T05:55:31.612Z,1.10
2018-12-04T05:57:42.485Z,1.10
2018-12-04T05:59:53.350Z,1.30
2018-12-04T06:02:04.393Z,1.43
2018-12-04T06:04:15.240Z,1.20
2018-12-04T06:06:26.101Z,1.60
2018-12-04T06:08:36.966Z,1.47
2018-12-04T06:10:48.790Z,1.43
2018-12-04T06:12:59.865Z,1.40
2018-12-04T06:15:11.255Z,1.50
2018-12-04T06:17:22.083Z,1.93
2018-12-04T06:19:32.970Z,1.20
2018-12-04T06:21:43.844Z,1.40
2018-12-04T06:23:54.669Z,1.10
2018-12-04T06:26:05.520Z,1.20
2018-12-04T06:28:16.372Z,1.20
2018-12-04T06:30:27.335Z,1.30
2018-12-04T06:32:38.443Z,1.20
2018-12-04T06:34:49.269Z,1.40
2018-12-04T06:37:00.183Z,1.30
2018-12-04T06:39:11.065Z,1.43
2018-12-04T06:41:21.925Z,1.17
2018-12-04T06:43:32.777Z,1.30
2018-12-04T06:45:43.610Z,1.13
2018-12-04T06:47:54.493Z,1.23
2018-12-04T06:50:08.371Z,0.97
2018-12-04T06:52:19.280Z,1.60
2018-12-04T06:54:30.150Z,1.23
2018-12-04T06:56:41.030Z,1.17
2018-12-04T06:58:51.899Z,1.40
2018-12-04T07:01:02.859Z,1.60
2018-12-04T07:03:13.745Z,1.77
2018-12-04T07:05:24.591Z,2.00
2018-12-04T07:07:35.461Z,1.40
2018-12-04T07:09:46.325Z,1.60
2018-12-04T07:12:02.290Z,1.47
2018-12-04T07:14:10.123Z,1.27
2018-12-04T07:16:20.949Z,1.17
2018-12-04T07:18:31.812Z,1.20
2018-12-04T07:20:42.661Z,0.90
2018-12-04T07:22:53.533Z,1.30
2018-12-04T07:25:04.597Z,1.10
2018-12-04T07:27:15.461Z,1.30
2018-12-04T07:29:26.323Z,1.10
2018-12-04T07:31:37.173Z,1.67
2018-12-04T07:33:48.040Z,1.17
2018-12-04T07:35:58.981Z,1.00
2018-12-04T07:38:09.860Z,1.10
2018-12-04T07:40:20.749Z,1.53
2018-12-04T07:42:31.678Z,1.30
2018-12-04T07:44:42.526Z,1.33
2018-12-04T07:46:53.382Z,1.43
2018-12-04T07:49:04.241Z,1.30
2018-12-04T07:51:15.109Z,1.40
2018-12-04T07:53:25.987Z,1.40
2018-12-04T07:55:36.898Z,1.70
2018-12-04T07:57:47.723Z,1.40
2018-12-04T07:59:58.602Z,1.77
2018-12-04T08:02:09.464Z,1.90
2018-12-04T08:04:20.304Z,1.60
2018-12-04T08:06:31.256Z,1.70
2018-12-04T08:08:42.078Z,1.47
2018-12-04T08:10:52.953Z,1.50
2018-12-04T08:13:03.791Z,1.57
2018-12-04T08:15:14.665Z,1.60
2018-12-04T08:17:25.529Z,2.30
2018-12-04T08:19:36.393Z,1.60
2018-12-04T08:21:47.247Z,2.10
2018-12-04T08:23:58.117Z,2.03
2018-12-04T08:26:09.000Z,2.17
2018-12-04T08:28:19.856Z,2.33
2018-12-04T08:30:30.729Z,1.50
2018-12-04T08:32:41.578Z,1.70
2018-12-04T08:34:52.556Z,1.80
2018-12-04T08:37:03.427Z,1.87
2018-12-04T08:39:14.425Z,1.93
2018-12-04T08:41:25.317Z,2.20
2018-12-04T08:43:36.166Z,1.90
2018-12-04T08:45:47.012Z,1.90
2018-12-04T08:47:57.889Z,1.80
2018-12-04T08:50:08.727Z,1.90
2018-12-04T08:52:19.583Z,1.90
2018-12-04T08:54:30.433Z,2.03
2018-12-04T08:56:41.288Z,1.83
2018-12-04T08:58:52.161Z,2.00
2018-12-04T09:01:03.007Z,2.10
2018-12-04T09:03:13.898Z,2.00
2018-12-04T09:05:24.741Z,1.90
2018-12-04T09:07:35.710Z,2.10
2018-12-04T09:09:46.569Z,1.90
2018-12-04T09:11:57.418Z,2.23
2018-12-04T09:14:08.272Z,2.20
2018-12-04T09:16:23.361Z,2.07
2018-12-04T09:18:32.045Z,2.00
2018-12-04T09:20:42.954Z,2.37
2018-12-04T09:22:54.015Z,1.90
2018-12-04T09:25:05.135Z,2.00
2018-12-04T09:27:16.177Z,2.50
2018-12-04T09:29:27.111Z,2.00
2018-12-04T09:31:37.952Z,1.80
2018-12-04T09:33:48.815Z,1.93
2018-12-04T09:35:59.692Z,1.70
2018-12-04T09:38:10.545Z,1.70
2018-12-04T09:40:21.384Z,2.00
2018-12-04T09:42:32.241Z,1.90
2018-12-04T09:44:43.209Z,1.90
2018-12-04T09:46:54.065Z,2.00
2018-12-04T09:49:04.939Z,1.80
2018-12-04T09:51:15.792Z,1.77
2018-12-04T09:53:26.653Z,1.70
2018-12-04T09:55:37.503Z,1.60
2018-12-04T09:57:48.348Z,2.20
2018-12-04T09:59:59.215Z,1.80
2018-12-04T10:02:10.070Z,2.50
2018-12-04T10:04:21.051Z,1.87
2018-12-04T10:06:31.909Z,1.73
2018-12-04T10:08:42.745Z,1.57
2018-12-04T10:10:53.625Z,1.60
2018-12-04T10:13:04.464Z,1.93
2018-12-04T10:15:15.413Z,1.60
2018-12-04T10:17:26.294Z,1.53
2018-12-04T10:19:37.137Z,1.80
2018-12-04T10:21:48.022Z,1.87
2018-12-04T10:23:58.937Z,1.73
2018-12-04T10:26:09.786Z,1.93
2018-12-04T10:28:20.659Z,1.90
2018-12-04T10:30:31.621Z,2.20
2018-12-04T10:32:44.490Z,1.90
2018-12-04T10:34:55.360Z,2.10
2018-12-04T10:37:06.217Z,2.00
2018-12-04T10:39:17.074Z,2.33
2018-12-04T10:41:27.917Z,2.00
2018-12-04T10:43:38.801Z,2.07
2018-12-04T10:45:49.667Z,1.80
2018-12-04T10:48:00.511Z,1.90
2018-12-04T10:50:11.363Z,2.27
2018-12-04T10:52:22.206Z,2.10
2018-12-04T10:54:33.176Z,2.00
2018-12-04T10:56:44.087Z,2.27
2018-12-04T10:58:54.954Z,1.87
2018-12-04T11:01:07.821Z,2.00
2018-12-04T11:03:20.717Z,2.00
2018-12-04T11:05:35.533Z,1.97
2018-12-04T11:07:47.209Z,2.27
2018-12-04T11:09:58.049Z,1.63
2018-12-04T11:12:12.242Z,1.90
2018-12-04T11:14:21.817Z,1.90
2018-12-04T11:16:32.673Z,2.27
2018-12-04T11:18:43.521Z,2.30
2018-12-04T11:20:54.380Z,2.10
2018-12-04T11:23:05.344Z,2.20
2018-12-04T11:25:16.228Z,2.10
2018-12-04T11:27:27.174Z,2.30
2018-12-04T11:29:38.017Z,2.50
2018-12-04T11:31:49.958Z,2.20
2018-12-04T11:34:00.845Z,2.23
2018-12-04T11:36:11.713Z,2.50
2018-12-04T11:38:22.544Z,2.13
2018-12-04T11:40:33.385Z,2.23
2018-12-04T11:42:44.341Z,2.13
2018-12-04T11:44:55.189Z,1.93
2018-12-04T11:47:08.841Z,2.30
2018-12-04T11:49:19.688Z,2.10
2018-12-04T11:51:32.402Z,1.70
2018-12-04T11:53:43.343Z,1.73
2018-12-04T11:55:54.200Z,2.23
2018-12-04T11:58:05.153Z,1.90
2018-12-04T12:00:19.103Z,2.07
2018-12-04T12:02:29.949Z,2.20
2018-12-04T12:04:40.817Z,2.20
2018-12-04T12:06:51.668Z,2.23
2018-12-04T12:09:05.365Z,2.30
2018-12-04T12:11:16.227Z,2.47
2018-12-04T12:13:27.082Z,2.40
2018-12-04T12:15:37.928Z,2.20
2018-12-04T12:17:48.787Z,2.37
2018-12-04T12:19:59.773Z,2.40
2018-12-04T12:22:10.644Z,2.47
2018-12-04T12:24:21.501Z,2.50
2018-12-04T12:26:32.397Z,3.00
2018-12-04T12:28:43.252Z,2.57
2018-12-04T12:30:54.102Z,2.33
2018-12-04T12:33:04.969Z,2.47
2018-12-04T12:35:15.809Z,2.80
2018-12-04T12:37:26.652Z,2.53
2018-12-04T12:39:37.525Z,2.50
2018-12-04T12:41:48.383Z,2.37
2018-12-04T12:43:59.269Z,2.40
2018-12-04T12:46:10.221Z,2.77
2018-12-04T12:48:21.094Z,2.97
2018-12-04T12:50:31.950Z,2.97
2018-12-04T12:52:42.790Z,2.73
2018-12-04T12:54:53.769Z,2.83
2018-12-04T12:57:04.617Z,2.87
2018-12-04T12:59:15.473Z,3.40
2018-12-04T13:01:27.266Z,3.80
2018-12-04T13:03:38.212Z,3.30
2018-12-04T13:05:49.101Z,3.23
2018-12-04T13:07:59.977Z,4.07
2018-12-04T13:10:11.739Z,3.40
2018-12-04T13:12:22.718Z,3.27
2018-12-04T13:14:33.674Z,3.63
2018-12-04T13:16:44.525Z,3.13
2018-12-04T13:18:55.501Z,3.37
2018-12-04T13:21:06.377Z,3.50
2018-12-04T13:23:17.340Z,3.50
2018-12-04T13:25:28.251Z,3.57
2018-12-04T13:27:39.220Z,3.37
2018-12-04T13:29:50.251Z,3.33
2018-12-04T13:32:01.135Z,3.10
2018-12-04T13:34:13.940Z,2.90
2018-12-04T13:36:24.935Z,3.00
2018-12-04T13:38:36.022Z,3.03
2018-12-04T13:40:46.987Z,2.33
2018-12-04T13:42:57.833Z,2.40
2018-12-04T13:45:08.844Z,2.27
2018-12-04T13:47:21.559Z,2.00
2018-12-04T13:49:33.420Z,2.10
2018-12-04T13:51:46.297Z,2.20
2018-12-04T13:53:57.142Z,2.50
2018-12-04T13:56:08.018Z,2.13
2018-12-04T13:58:18.873Z,2.00
2018-12-04T14:00:29.760Z,2.47
2018-12-04T14:02:40.803Z,1.70
2018-12-04T14:04:52.153Z,1.90
2018-12-04T14:07:03.176Z,2.00
2018-12-04T14:09:14.058Z,1.67
2018-12-04T14:11:25.664Z,1.70
2018-12-04T14:13:36.760Z,1.83
2018-12-04T14:15:47.670Z,2.10
2018-12-04T14:17:58.698Z,2.00
2018-12-04T14:20:09.567Z,2.47
2018-12-04T14:22:20.523Z,2.20
2018-12-04T14:24:31.501Z,2.13
2018-12-04T14:26:42.453Z,2.10
2018-12-04T14:28:53.407Z,2.47
2018-12-04T14:31:04.394Z,2.57
2018-12-04T14:33:15.366Z,2.40
2018-12-04T14:35:26.347Z,2.20
2018-12-04T14:37:37.347Z,1.83
2018-12-04T14:39:48.318Z,1.80
2018-12-04T14:41:59.287Z,1.80
2018-12-04T14:44:10.225Z,1.93
2018-12-04T14:46:21.191Z,2.03
2018-12-04T14:48:36.749Z,2.00
2018-12-04T14:50:47.703Z,2.00
2018-12-04T14:52:58.654Z,2.10
2018-12-04T14:55:09.614Z,2.63
2018-12-04T14:57:20.498Z,2.20
2018-12-04T14:59:31.427Z,2.80
2018-12-04T15:01:42.311Z,1.93
2018-12-04T15:03:53.262Z,2.57
2018-12-04T15:06:04.258Z,2.07
2018-12-04T15:08:15.147Z,2.67
2018-12-04T15:10:26.183Z,2.13
2018-12-04T15:12:37.110Z,2.13
2018-12-04T15:14:48.050Z,2.33
2018-12-04T15:16:59.028Z,2.50
2018-12-04T15:19:09.984Z,2.60
2018-12-04T15:21:20.923Z,2.03
2018-12-04T15:23:31.858Z,2.17
2018-12-04T15:25:43.130Z,2.43
2018-12-04T15:27:54.226Z,2.50
2018-12-04T15:30:06.441Z,2.50
2018-12-04T15:32:17.331Z,3.63
2018-12-04T15:34:28.268Z,2.63
2018-12-04T15:36:39.232Z,3.03
2018-12-04T15:38:50.178Z,3.20
2018-12-04T15:41:01.185Z,3.30
2018-12-04T15:43:12.140Z,2.60
2018-12-04T15:45:23.015Z,3.70
2018-12-04T15:47:34.042Z,4.50
2018-12-04T15:49:47.769Z,4.67
2018-12-04T15:51:58.730Z,3.80
2018-12-04T15:54:09.648Z,3.60
2018-12-04T15:56:20.701Z,3.60
2018-12-04T15:58:31.591Z,3.13
2018-12-04T16:00:42.461Z,3.10
2018-12-04T16:02:53.336Z,3.07
2018-12-04T16:05:05.733Z,3.70
2018-12-04T16:07:16.606Z,3.23
2018-12-04T16:09:27.461Z,2.80
2018-12-04T16:11:38.313Z,3.50
2018-12-04T16:13:49.212Z,3.87
2018-12-04T16:16:00.115Z,4.83
2018-12-04T16:18:10.966Z,3.83
2018-12-04T16:20:21.838Z,4.03
2018-12-04T16:22:32.731Z,4.50
2018-12-04T16:24:43.623Z,5.50
2018-12-04T16:26:54.514Z,5.37
2018-12-04T16:29:05.425Z,4.40
2018-12-04T16:31:16.310Z,4.53
2018-12-04T16:33:27.153Z,4.30
2018-12-04T16:35:38.013Z,4.30
2018-12-04T16:37:49.006Z,3.80
2018-12-04T16:39:59.879Z,3.70
2018-12-04T16:42:10.792Z,3.87
2018-12-04T16:44:21.689Z,4.33
2018-12-04T16:46:33.494Z,3.80
2018-12-04T16:48:44.326Z,3.70
2018-12-04T16:50:55.195Z,4.20
2018-12-04T16:53:06.097Z,4.27
2018-12-04T16:55:17.050Z,4.70
2018-12-04T16:57:28.031Z,4.87
2018-12-04T16:59:38.877Z,4.10
2018-12-04T17:01:50.960Z,4.60
2018-12-04T17:04:01.838Z,5.03
2018-12-04T17:06:12.705Z,5.17
2018-12-04T17:08:23.614Z,5.73
2018-12-04T17:10:34.561Z,5.97
2018-12-04T17:12:45.535Z,5.87
2018-12-04T17:14:56.485Z,5.60
2018-12-04T17:17:07.337Z,4.50
2018-12-04T17:19:18.461Z,6.03
2018-12-04T17:21:29.331Z,5.97
2018-12-04T17:23:40.201Z,5.93
2018-12-04T17:25:51.053Z,6.53
2018-12-04T17:28:01.942Z,6.00
2018-12-04T17:30:12.851Z,5.90
2018-12-04T17:32:23.742Z,5.90
2018-12-04T17:34:34.619Z,6.40
2018-12-04T17:36:45.494Z,6.07
2018-12-04T17:38:56.401Z,6.20
2018-12-04T17:41:07.303Z,7.63
2018-12-04T17:43:18.281Z,7.30
2018-12-04T17:45:29.124Z,7.00
2018-12-04T17:47:40.008Z,6.03
2018-12-04T17:49:50.960Z,6.10
2018-12-04T17:52:01.861Z,6.03
2018-12-04T17:54:12.769Z,6.50
2018-12-04T17:56:23.715Z,7.50
2018-12-04T17:58:34.647Z,5.30
2018-12-04T18:00:45.544Z,5.40
2018-12-04T18:02:56.450Z,6.57
2018-12-04T18:05:07.433Z,6.57
2018-12-04T18:07:18.330Z,6.30
2018-12-04T18:09:29.209Z,6.27
2018-12-04T18:11:40.074Z,5.93
2018-12-04T18:13:51.076Z,6.80
2018-12-04T18:16:01.943Z,6.43
2018-12-04T18:18:12.824Z,5.73
2018-12-04T18:20:23.684Z,6.43
2018-12-04T18:22:34.799Z,7.20
2018-12-04T18:24:46.314Z,6.57
2018-12-04T18:26:57.148Z,6.77
2018-12-04T18:29:08.025Z,5.93
2018-12-04T18:31:18.917Z,6.43
2018-12-04T18:33:29.770Z,7.50
2018-12-04T18:35:40.622Z,7.63
2018-12-04T18:37:51.509Z,7.10
2018-12-04T18:40:02.753Z,6.57
2018-12-04T18:42:13.654Z,7.70
2018-12-04T18:44:24.525Z,7.60
2018-12-04T18:46:35.452Z,7.00
2018-12-04T18:48:46.410Z,7.30
2018-12-04T18:50:57.619Z,7.10
2018-12-04T18:53:08.502Z,6.50
2018-12-04T18:55:21.553Z,6.73
2018-12-04T18:57:32.434Z,6.13
2018-12-04T18:59:43.308Z,7.07
2018-12-04T19:01:54.301Z,7.17
2018-12-04T19:04:05.186Z,6.23
2018-12-04T19:06:16.068Z,6.37
2018-12-04T19:08:33.029Z,6.80
2018-12-04T19:10:43.882Z,7.33
2018-12-04T19:12:54.785Z,7.67
2018-12-04T19:15:05.690Z,7.20
2018-12-04T19:17:16.641Z,6.73
2018-12-04T19:19:27.512Z,7.00
2018-12-04T19:21:38.382Z,7.07
2018-12-04T19:23:49.275Z,6.43
2018-12-04T19:26:00.153Z,9.67
2018-12-04T19:28:10.985Z,6.97
2018-12-04T19:30:22.200Z,7.03
2018-12-04T19:32:33.082Z,8.13
2018-12-04T19:34:43.933Z,6.97
2018-12-04T19:36:55.745Z,7.10
2018-12-04T19:39:06.712Z,6.07
2018-12-04T19:41:17.617Z,6.87
2018-12-04T19:43:28.518Z,7.00
2018-12-04T19:45:39.397Z,8.23
2018-12-04T19:47:50.348Z,6.83
2018-12-04T19:50:01.306Z,6.43
2018-12-04T19:52:12.273Z,6.00
2018-12-04T19:54:23.161Z,7.03
2018-12-04T19:56:34.082Z,6.97
2018-12-04T19:58:45.107Z,6.60
2018-12-04T20:00:55.969Z,6.47
2018-12-04T20:03:06.844Z,7.20
2018-12-04T20:05:17.740Z,6.77
2018-12-04T20:07:28.689Z,6.97
2018-12-04T20:09:39.562Z,6.60
2018-12-04T20:11:50.488Z,6.73
2018-12-04T20:14:01.500Z,6.47
2018-12-04T20:16:12.331Z,5.93
2018-12-04T20:18:23.237Z,6.50
2018-12-04T20:20:34.143Z,6.33
2018-12-04T20:22:45.018Z,6.20
2018-12-04T20:24:55.880Z,5.27
2018-12-04T20:27:06.731Z,6.90
2018-12-04T20:29:17.643Z,6.63
2018-12-04T20:31:28.495Z,6.80
2018-12-04T20:33:39.366Z,6.27
2018-12-04T20:35:50.265Z,6.47
2018-12-04T20:38:01.134Z,8.57
2018-12-04T20:40:12.002Z,15.33
2018-12-04T20:42:23.418Z,7.00
2018-12-04T20:44:34.552Z,6.27
2018-12-04T20:46:45.433Z,6.90
2018-12-04T20:48:56.295Z,8.80
2018-12-04T20:51:07.263Z,12.23
2018-12-04T20:53:18.255Z,11.73
2018-12-04T20:55:29.154Z,10.17
2018-12-04T20:57:40.034Z,9.00
2018-12-04T20:59:50.921Z,9.50
2018-12-04T21:02:02.055Z,9.37
2018-12-04T21:04:12.971Z,9.07
2018-12-04T21:06:23.887Z,9.03
2018-12-04T21:08:35.016Z,8.40
2018-12-04T21:10:46.025Z,7.40
2018-12-04T21:12:56.962Z,6.93
2018-12-04T21:15:07.869Z,6.13
2018-12-04T21:17:18.796Z,6.87
2018-12-04T21:19:29.754Z,7.07
2018-12-04T21:21:40.773Z,7.13
2018-12-04T21:23:51.655Z,7.90
2018-12-04T21:26:02.613Z,9.33
2018-12-04T21:28:19.679Z,8.67
2018-12-04T21:30:36.741Z,7.97
2018-12-04T21:32:53.794Z,8.33
2018-12-04T21:35:11.000Z,8.07
2018-12-04T21:37:27.849Z,7.53
2018-12-04T21:39:40.736Z,6.67
2018-12-04T21:41:59.558Z,7.47
2018-12-04T21:47:06.112Z,7.60
2018-12-04T21:49:16.997Z,8.83
2018-12-04T21:51:27.837Z,7.50
2018-12-04T21:53:38.806Z,8.03
2018-12-04T21:55:49.658Z,7.93
2018-12-04T21:58:00.553Z,7.17
2018-12-04T22:00:11.397Z,7.90
2018-12-04T22:02:22.473Z,7.57
2018-12-04T22:04:33.376Z,7.47
2018-12-04T22:06:44.232Z,7.63
2018-12-04T22:08:55.266Z,8.30
2018-12-04T22:11:06.590Z,7.77
2018-12-04T22:13:17.452Z,5.77
2018-12-04T22:15:28.360Z,6.57
2018-12-04T22:17:39.240Z,8.37
2018-12-04T22:19:50.169Z,9.27
2018-12-04T22:22:01.013Z,8.30
2018-12-04T22:24:11.900Z,8.07
2018-12-04T22:26:22.800Z,8.43
2018-12-04T22:28:33.675Z,7.40
2018-12-04T22:30:44.575Z,7.47
2018-12-04T22:32:55.543Z,7.97
2018-12-04T22:35:06.494Z,7.80
2018-12-04T22:37:17.377Z,7.70
2018-12-04T22:39:28.261Z,8.53
2018-12-04T22:41:39.177Z,8.87
2018-12-04T22:43:50.037Z,9.10
2018-12-04T22:46:00.931Z,8.97
2018-12-04T22:48:11.926Z,8.90
2018-12-04T22:50:22.788Z,10.93
2018-12-04T22:52:33.641Z,8.80
2018-12-04T22:54:44.574Z,11.40
2018-12-04T22:56:55.445Z,11.03
2018-12-04T22:59:06.310Z,10.47
2018-12-04T23:01:25.279Z,11.23
2018-12-04T23:03:36.136Z,10.07
2018-12-04T23:05:47.202Z,10.37
2018-12-04T23:07:58.094Z,11.23
2018-12-04T23:10:08.938Z,10.60
2018-12-04T23:12:19.921Z,11.83
2018-12-04T23:14:30.754Z,10.47
2018-12-04T23:16:41.821Z,9.90
2018-12-04T23:18:52.694Z,11.23
2018-12-04T23:21:03.559Z,10.10
2018-12-04T23:23:14.497Z,10.07
2018-12-04T23:25:25.424Z,11.70
2018-12-04T23:27:36.297Z,12.33
2018-12-04T23:29:47.137Z,11.60
2018-12-04T23:31:57.973Z,9.20
2018-12-04T23:34:08.849Z,9.20
2018-12-04T23:36:19.705Z,10.57
2018-12-04T23:38:30.582Z,13.23
2018-12-04T23:40:41.428Z,11.80
2018-12-04T23:42:52.291Z,10.33
2018-12-04T23:45:03.477Z,11.03
2018-12-04T23:47:14.320Z,12.57
2018-12-04T23:49:25.169Z,11.93
2018-12-04T23:51:36.000Z,12.87
2018-12-04T23:53:46.846Z,13.90
2018-12-04T23:55:57.675Z,13.03
2018-12-04T23:58:08.549Z,13.00
